Time;durP1;ratioP1;P1;durP2;ratioP2;P2;SDS_P1;SDS_P2;PMS_P1;PMS_P2;Temp;Humidity;BMP_temperature;BMP_pressure;BME280_temperature;BME280_humidity;BME280_pressure;Samples;Min_cycle;Max_cycle;Signal;HPM_P1;HPM_P2
2021/10/20 00:11:36;;;;;;;12.93;4.27;;;;;;;5.85;49.89;101443.56;30741816;28;20055;-84
2021/10/20 00:26:38;;;;;;;7.83;4.30;;;;;;;5.57;50.74;101443.72;30756769;28;20050;-83
2021/10/20 00:41:40;;;;;;;8.93;5.30;;;;;;;5.58;51.33;101441.81;30751317;28;20051;-82
2021/10/20 00:56:42;;;;;;;11.17;5.33;;;;;;;5.33;52.71;101449.31;30754209;28;20043;-83
2021/10/20 01:11:44;;;;;;;12.00;6.53;;;;;;;5.09;53.83;101456.47;30746207;28;20055;-83
2021/10/20 01:26:51;;;;;;;12.80;6.37;;;;;;;4.88;54.84;101455.94;30744259;28;20059;-84
2021/10/20 01:41:53;;;;;;;13.27;7.60;;;;;;;4.68;54.19;101467.72;30743518;28;20057;-83
2021/10/20 01:56:55;;;;;;;15.73;7.37;;;;;;;4.54;54.99;101499.59;30756513;28;23602;-83
2021/10/20 02:11:57;;;;;;;18.07;7.53;;;;;;;4.38;56.25;101505.72;30771047;28;20047;-84
2021/10/20 02:26:59;;;;;;;14.90;7.43;;;;;;;4.32;55.81;101507.09;30767079;28;20142;-83
2021/10/20 02:42:01;;;;;;;18.73;6.97;;;;;;;4.34;56.27;101507.53;30763187;28;20047;-84
2021/10/20 02:57:03;;;;;;;13.53;7.53;;;;;;;4.27;56.44;101517.28;30760335;28;20049;-84
2021/10/20 03:12:05;;;;;;;15.07;7.13;;;;;;;4.15;57.85;101534.25;30778567;28;20081;-84
2021/10/20 03:27:07;;;;;;;14.83;6.57;;;;;;;4.16;58.33;101517.00;30746212;28;20059;-84
2021/10/20 03:42:11;;;;;;;13.53;6.13;;;;;;;4.30;58.04;101520.09;30745248;28;20489;-83
2021/10/20 03:57:13;;;;;;;12.43;5.57;;;;;;;4.22;58.48;101529.09;30750559;28;20039;-83
2021/10/20 04:12:14;;;;;;;15.37;7.33;;;;;;;3.88;58.84;101553.78;30755467;28;20058;-84
2021/10/20 04:27:16;;;;;;;20.83;7.57;;;;;;;3.69;60.10;101565.88;30750041;28;20066;-82
2021/10/20 04:42:18;;;;;;;15.87;7.10;;;;;;;3.64;59.57;101587.56;30750811;28;20148;-82
2021/10/20 04:57:20;;;;;;;15.03;8.00;;;;;;;4.19;57.91;101596.19;30749310;28;20047;-82
2021/10/20 05:12:22;;;;;;;15.80;7.10;;;;;;;5.01;57.78;101615.41;30748398;28;20578;-80
2021/10/20 05:27:24;;;;;;;14.70;7.63;;;;;;;6.14;53.54;101634.44;30774634;28;20047;-78
2021/10/20 05:42:25;;;;;;;16.50;7.87;;;;;;;7.83;48.76;101659.72;30780350;28;20047;-78
2021/10/20 05:57:28;;;;;;;17.37;8.37;;;;;;;9.44;45.10;101676.19;30755258;28;20055;-76
2021/10/20 06:12:29;;;;;;;20.00;9.97;;;;;;;10.73;43.89;101678.72;30756380;28;20054;-74
2021/10/20 06:27:31;;;;;;;16.87;8.57;;;;;;;11.84;41.23;101678.63;30769629;28;20051;-74
2021/10/20 06:42:33;;;;;;;19.23;10.40;;;;;;;12.64;39.59;101710.84;30755080;28;20043;-74
2021/10/20 06:57:35;;;;;;;23.53;10.23;;;;;;;13.47;38.08;101691.00;30792722;28;20086;-75
2021/10/20 07:12:38;;;;;;;29.13;10.30;;;;;;;14.45;36.73;101684.38;30783382;28;20055;-74
2021/10/20 07:27:41;;;;;;;13.57;6.77;;;;;;;15.76;34.54;101682.69;30771673;28;20051;-74
2021/10/20 07:42:44;;;;;;;14.75;7.28;;;;;;;16.51;33.22;101682.16;30754371;28;20073;-75
2021/10/20 07:57:46;;;;;;;12.27;6.38;;;;;;;17.08;31.84;101693.94;30756479;28;20051;-74
2021/10/20 08:12:48;;;;;;;64.45;8.93;;;;;;;17.57;31.23;101675.59;30748338;28;20055;-75
2021/10/20 08:27:50;;;;;;;12.20;5.95;;;;;;;17.53;31.32;101670.19;30747986;28;20051;-75
2021/10/20 08:42:54;;;;;;;7.18;3.55;;;;;;;18.05;29.74;101656.38;30749983;29;20525;-75
2021/10/20 08:57:56;;;;;;;11.67;3.70;;;;;;;18.47;29.23;101645.41;30748562;28;20047;-76
2021/10/20 09:13:00;;;;;;;4.35;3.08;;;;;;;18.89;27.83;101629.72;30739011;28;20047;-75
2021/10/20 09:28:04;;;;;;;5.30;2.33;;;;;;;19.60;25.50;101604.72;30740423;28;20063;-74
2021/10/20 09:43:11;;;;;;;3.58;1.75;;;;;;;19.92;24.97;101598.09;30739981;29;20062;-76
2021/10/20 09:58:14;;;;;;;4.53;2.00;;;;;;;20.39;24.67;101587.75;30746118;28;20047;-76
2021/10/20 10:13:23;;;;;;;7.50;2.17;;;;;;;20.45;23.79;101587.94;30747790;28;20054;-76
2021/10/20 10:28:31;;;;;;;4.93;1.88;;;;;;;20.48;23.79;101573.25;30765026;28;20090;-77
2021/10/20 10:43:33;;;;;;;8.43;3.25;;;;;;;20.44;22.80;101567.09;30767969;28;20300;-77
2021/10/20 10:58:59;;;;;;;8.27;3.15;;;;;;;20.21;23.60;101543.50;30754998;28;20061;-76
2021/10/20 11:14:02;;;;;;;6.78;2.60;;;;;;;20.76;21.61;101525.25;30756785;28;20484;-75
2021/10/20 11:29:09;;;;;;;9.60;2.75;;;;;;;20.73;21.91;101501.34;30760886;28;20059;-76
2021/10/20 11:44:11;;;;;;;4.78;2.30;;;;;;;21.62;19.75;101491.38;30752795;28;20062;-77
2021/10/20 11:59:25;;;;;;;4.78;3.10;;;;;;;21.93;19.96;101483.66;30755129;28;20059;-75
2021/10/20 12:14:46;;;;;;;6.53;2.40;;;;;;;18.12;23.68;101489.75;30746945;28;20058;-75
2021/10/20 12:29:54;;;;;;;6.45;3.15;;;;;;;15.85;26.08;101499.44;30752924;28;20090;-76
2021/10/20 12:44:58;;;;;;;10.05;5.45;;;;;;;14.87;28.10;101516.38;30747451;28;20055;-74
2021/10/20 13:00:09;;;;;;;9.43;4.70;;;;;;;14.49;27.60;101512.97;30740527;29;20059;-76
2021/10/20 13:15:11;;;;;;;10.00;4.90;;;;;;;13.87;28.22;101495.75;30747083;28;20051;-76
2021/10/20 13:30:16;;;;;;;5.43;2.30;;;;;;;13.62;27.77;101487.06;30740484;28;20067;-75
2021/10/20 13:45:18;;;;;;;7.77;3.57;;;;;;;13.50;28.09;101457.56;30743051;28;20051;-76
2021/10/20 14:00:20;;;;;;;9.47;4.67;;;;;;;13.35;28.45;101437.84;30776943;28;20062;-75
2021/10/20 14:15:24;;;;;;;9.07;4.33;;;;;;;12.94;29.46;101438.56;30781483;28;20075;-75
2021/10/20 14:30:26;;;;;;;9.13;4.77;;;;;;;12.63;30.36;101436.84;30769107;28;20194;-75
2021/10/20 14:45:32;;;;;;;7.33;4.00;;;;;;;12.23;31.51;101419.22;30768847;28;20051;-75
2021/10/20 15:00:34;;;;;;;9.80;4.10;;;;;;;11.92;31.86;101429.84;30769153;28;20059;-74
2021/10/20 15:15:36;;;;;;;6.80;3.47;;;;;;;11.57;32.19;101438.09;30757140;28;20109;-76
2021/10/20 15:30:39;;;;;;;12.50;3.40;;;;;;;11.11;34.72;101422.63;30750921;28;20086;-75
2021/10/20 15:45:41;;;;;;;16.00;4.70;;;;;;;10.47;39.77;101403.59;30757655;28;20051;-75
2021/10/20 16:00:43;;;;;;;12.60;4.47;;;;;;;10.14;43.20;101407.41;30748947;28;20059;-75
2021/10/20 16:15:46;;;;;;;11.53;6.17;;;;;;;9.97;46.25;101386.38;30754237;28;20058;-76
2021/10/20 16:30:48;;;;;;;12.93;6.70;;;;;;;9.69;48.79;101368.06;30743644;28;20083;-76
2021/10/20 16:45:50;;;;;;;13.40;5.97;;;;;;;9.47;51.13;101382.69;30766101;28;20514;-77
2021/10/20 17:00:52;;;;;;;13.43;4.67;;;;;;;9.24;52.11;101378.31;30832781;28;20585;-76
2021/10/20 17:15:55;;;;;;;14.77;4.60;;;;;;;9.19;51.97;101389.53;30788182;28;20423;-76
2021/10/20 17:30:57;;;;;;;17.20;7.00;;;;;;;9.13;52.50;101385.59;30754821;28;20069;-75
2021/10/20 17:46:09;;;;;;;17.50;7.57;;;;;;;8.98;52.90;101364.97;30767633;28;20523;-77
2021/10/20 18:01:14;;;;;;;20.57;9.50;;;;;;;9.01;52.80;101361.50;30796293;28;20130;-77
2021/10/20 18:16:16;;;;;;;20.00;8.60;;;;;;;9.04;52.26;101363.47;30756239;28;20051;-75
2021/10/20 18:31:18;;;;;;;20.70;8.97;;;;;;;9.09;52.77;101346.88;30742563;28;20084;-76
2021/10/20 18:46:21;;;;;;;14.63;6.87;;;;;;;8.94;52.30;101339.81;30779211;28;20082;-76
2021/10/20 19:01:23;;;;;;;15.97;7.00;;;;;;;8.66;53.16;101313.31;30760378;28;20063;-76
2021/10/20 19:16:25;;;;;;;13.63;4.93;;;;;;;8.61;56.17;101310.16;30751409;28;20055;-76
2021/10/20 19:31:27;;;;;;;9.27;5.20;;;;;;;8.52;58.38;101292.31;30736868;28;20059;-74
2021/10/20 19:46:32;;;;;;;9.97;4.23;;;;;;;8.68;58.25;101297.47;30767553;28;20054;-74
2021/10/20 20:01:35;;;;;;;9.93;4.50;;;;;;;8.90;58.66;101314.63;30754347;28;20051;-77
2021/10/20 20:16:39;;;;;;;9.50;5.13;;;;;;;8.94;57.64;101299.19;30749899;28;20054;-77
2021/10/20 20:31:42;;;;;;;11.57;4.27;;;;;;;8.93;54.85;101305.75;30737499;28;20062;-74
2021/10/20 20:46:44;;;;;;;6.53;3.53;;;;;;;8.86;52.27;101268.56;30683831;28;21868;-75
2021/10/20 21:01:46;;;;;;;5.93;2.90;;;;;;;8.70;51.83;101243.72;30687004;28;20105;-75
2021/10/20 21:16:49;;;;;;;3.83;2.50;;;;;;;8.58;53.85;101270.31;30677324;28;20153;-75
2021/10/20 21:31:51;;;;;;;3.70;2.60;;;;;;;8.46;55.82;101242.41;30661377;28;20491;-75
2021/10/20 21:46:53;;;;;;;5.20;2.80;;;;;;;8.42;57.49;101247.03;30675573;28;20059;-76
2021/10/20 22:01:55;;;;;;;4.10;2.80;;;;;;;8.41;60.21;101218.41;30691874;28;20055;-74
2021/10/20 22:16:57;;;;;;;9.57;3.17;;;;;;;8.38;61.43;101238.09;30699401;28;20249;-74
2021/10/20 22:32:01;;;;;;;7.13;3.33;;;;;;;8.26;64.58;101216.72;30716930;28;20055;-74
2021/10/20 22:47:04;;;;;;;9.30;2.60;;;;;;;8.15;66.36;101210.44;30695445;28;20062;-75
2021/10/20 23:02:06;;;;;;;8.20;4.67;;;;;;;8.06;68.02;101196.47;30712244;28;20070;-75
2021/10/20 23:17:08;;;;;;;7.27;4.60;;;;;;;7.98;70.04;101175.94;30716795;28;20062;-75
2021/10/20 23:32:10;;;;;;;4.97;3.27;;;;;;;7.97;70.78;101179.78;30694333;28;20062;-74
2021/10/20 23:47:12;;;;;;;9.83;4.90;;;;;;;7.92;72.25;101155.78;30687969;28;20047;-74
